Time;durP1;ratioP1;P1;durP2;ratioP2;P2;SDS_P1;SDS_P2;PMS_P1;PMS_P2;Temp;Humidity;BMP_temperature;BMP_pressure;BME280_temperature;BME280_humidity;BME280_pressure;Samples;Min_cycle;Max_cycle;Signal;HPM_P1;HPM_P2
2023/04/24 00:01:24;;;;;;;25.17;16.52;;;;;;;12.32;100.00;99335.00;5053581;28;20028;-73
2023/04/24 00:03:51;;;;;;;26.27;16.40;;;;;;;12.35;100.00;99328.22;5070524;28;20119;-73
2023/04/24 00:06:17;;;;;;;23.77;16.33;;;;;;;12.36;100.00;99326.13;5073225;28;20028;-73
2023/04/24 00:08:43;;;;;;;25.75;17.23;;;;;;;12.34;100.00;99320.94;5071955;28;20115;-77
2023/04/24 00:11:10;;;;;;;25.55;17.42;;;;;;;12.39;100.00;99322.25;5072014;28;20020;-72
2023/04/24 00:13:35;;;;;;;22.20;16.55;;;;;;;12.42;100.00;99315.44;5071819;28;20048;-73
2023/04/24 00:16:02;;;;;;;24.90;15.43;;;;;;;12.43;100.00;99314.91;5072780;28;20055;-74
2023/04/24 00:18:28;;;;;;;26.67;17.05;;;;;;;12.43;100.00;99314.13;5072839;28;20074;-73
2023/04/24 00:20:55;;;;;;;24.92;17.27;;;;;;;12.42;100.00;99307.63;5072864;28;20025;-71
2023/04/24 00:23:21;;;;;;;26.55;17.38;;;;;;;12.49;100.00;99307.06;5073098;28;20127;-73
2023/04/24 00:25:47;;;;;;;26.17;16.65;;;;;;;12.50;100.00;99307.84;5073041;28;20031;-72
2023/04/24 00:28:14;;;;;;;28.08;17.73;;;;;;;12.51;100.00;99301.56;5072856;28;20043;-72
2023/04/24 00:30:41;;;;;;;29.55;18.50;;;;;;;12.53;100.00;99301.03;5072528;28;20031;-73
2023/04/24 00:33:07;;;;;;;24.90;17.15;;;;;;;12.49;100.00;99295.59;5071246;28;20109;-72
2023/04/24 00:35:33;;;;;;;27.55;17.58;;;;;;;12.47;100.00;99286.75;5071560;28;20048;-71
2023/04/24 00:37:58;;;;;;;27.05;18.27;;;;;;;12.45;100.00;99289.38;5072690;28;20020;-73
2023/04/24 00:40:25;;;;;;;25.80;17.48;;;;;;;12.48;100.00;99293.25;5072555;28;20032;-72
2023/04/24 00:42:51;;;;;;;30.95;18.60;;;;;;;12.51;100.00;99287.25;5071271;28;20141;-72
2023/04/24 00:45:18;;;;;;;28.55;16.95;;;;;;;12.52;100.00;99283.06;5071175;28;20055;-73
2023/04/24 00:47:46;;;;;;;25.80;18.75;;;;;;;12.54;100.00;99280.47;5072572;28;20111;-72
2023/04/24 00:50:14;;;;;;;30.80;16.73;;;;;;;12.53;100.00;99284.63;5072753;28;20104;-72
2023/04/24 00:52:41;;;;;;;28.58;17.52;;;;;;;12.52;100.00;99280.22;5054588;28;20412;-72
2023/04/24 00:55:08;;;;;;;26.63;18.98;;;;;;;12.52;100.00;99282.28;5072248;28;20073;-73
2023/04/24 00:57:34;;;;;;;28.60;18.05;;;;;;;12.50;100.00;99279.97;5072405;28;20123;-72
2023/04/24 01:00:03;;;;;;;29.23;18.42;;;;;;;12.51;100.00;99284.38;5071153;28;20033;-73
2023/04/24 01:02:30;;;;;;;28.90;17.83;;;;;;;12.50;100.00;99277.13;5072681;28;20028;-72
2023/04/24 01:04:56;;;;;;;31.67;19.52;;;;;;;12.48;100.00;99281.81;5072712;28;20025;-72
2023/04/24 01:07:23;;;;;;;29.15;17.52;;;;;;;12.45;100.00;99285.75;5054595;28;20025;-72
2023/04/24 01:09:50;;;;;;;27.98;19.40;;;;;;;12.43;100.00;99282.63;5072261;28;20074;-72
2023/04/24 01:12:21;;;;;;;35.83;20.05;;;;;;;12.38;100.00;99281.34;5072315;28;20029;-73
2023/04/24 01:14:47;;;;;;;32.75;19.65;;;;;;;12.34;100.00;99271.44;5075123;28;20101;-71
2023/04/24 01:17:13;;;;;;;29.48;18.88;;;;;;;12.31;100.00;99281.13;5075776;28;20527;-71
2023/04/24 01:19:39;;;;;;;30.30;18.92;;;;;;;12.25;100.00;99272.56;5074690;28;20078;-72
2023/04/24 01:22:11;;;;;;;26.70;17.02;;;;;;;12.25;100.00;99266.81;5075677;28;20028;-72
2023/04/24 01:24:37;;;;;;;26.98;18.05;;;;;;;12.18;100.00;99264.50;5072632;28;20024;-74
2023/04/24 01:27:02;;;;;;;25.35;16.90;;;;;;;12.16;100.00;99264.25;5072432;28;20036;-74
2023/04/24 01:29:28;;;;;;;26.48;15.43;;;;;;;12.15;100.00;99269.22;5072731;28;20058;-72
2023/04/24 01:31:54;;;;;;;22.27;15.82;;;;;;;12.16;100.00;99267.13;5071632;28;20453;-74
2023/04/24 01:34:20;;;;;;;24.90;14.85;;;;;;;12.15;100.00;99266.38;5071555;28;20024;-74
2023/04/24 01:36:46;;;;;;;24.20;15.75;;;;;;;12.17;100.00;99260.88;5071687;28;20032;-72
2023/04/24 01:39:12;;;;;;;19.30;14.73;;;;;;;12.18;100.00;99264.50;5073243;28;20032;-73
2023/04/24 01:41:37;;;;;;;26.02;16.02;;;;;;;12.17;100.00;99255.13;5073596;28;20454;-73
2023/04/24 01:44:03;;;;;;;26.42;15.35;;;;;;;12.16;100.00;99261.38;5075002;28;20028;-74
2023/04/24 01:46:30;;;;;;;23.20;14.32;;;;;;;12.13;100.00;99263.25;5072086;28;20048;-73
2023/04/24 01:48:56;;;;;;;19.00;14.80;;;;;;;12.12;100.00;99258.03;5073146;28;20031;-72
2023/04/24 01:51:21;;;;;;;24.60;14.98;;;;;;;12.16;100.00;99256.44;5073164;28;20025;-73
2023/04/24 01:53:47;;;;;;;21.40;15.07;;;;;;;12.16;100.00;99249.94;5054784;28;20048;-72
2023/04/24 01:56:12;;;;;;;23.05;14.55;;;;;;;12.07;100.00;99241.66;5073255;28;20036;-73
2023/04/24 01:58:37;;;;;;;23.35;14.25;;;;;;;12.06;100.00;99245.84;5071657;28;20025;-73
2023/04/24 02:01:03;;;;;;;21.42;14.02;;;;;;;12.14;100.00;99249.69;5073122;28;20380;-73
2023/04/24 02:03:28;;;;;;;23.13;14.25;;;;;;;12.15;100.00;99252.03;5074787;28;20381;-73
2023/04/24 02:05:54;;;;;;;22.35;15.30;;;;;;;12.10;100.00;99237.75;5074828;28;20043;-72
2023/04/24 02:08:19;;;;;;;22.25;14.15;;;;;;;12.19;100.00;99243.94;5074633;28;20466;-72
2023/04/24 02:10:45;;;;;;;21.00;14.07;;;;;;;12.24;100.00;99248.84;5074746;28;20029;-73
2023/04/24 02:13:10;;;;;;;20.65;15.02;;;;;;;12.24;100.00;99243.13;5074594;28;20024;-72
2023/04/24 02:15:35;;;;;;;18.80;14.35;;;;;;;12.27;100.00;99244.13;5074797;28;20381;-72
2023/04/24 02:18:01;;;;;;;25.98;14.38;;;;;;;12.32;100.00;99233.94;5073582;28;20025;-73
2023/04/24 02:20:27;;;;;;;19.63;13.50;;;;;;;12.33;100.00;99244.88;5074598;28;20165;-73
2023/04/24 02:22:52;;;;;;;17.33;13.05;;;;;;;12.26;100.00;99234.78;5074622;28;20470;-73
2023/04/24 02:25:18;;;;;;;22.17;13.80;;;;;;;12.26;100.00;99242.56;5074245;28;20496;-72
2023/04/24 02:27:43;;;;;;;19.90;14.07;;;;;;;12.25;100.00;99230.38;5074339;28;20016;-73
2023/04/24 02:30:10;;;;;;;22.52;14.38;;;;;;;12.30;100.00;99231.63;5073322;28;20465;-72
2023/04/24 02:32:35;;;;;;;16.20;12.80;;;;;;;12.23;100.00;99223.59;5074566;28;20067;-72
2023/04/24 02:35:01;;;;;;;21.50;14.15;;;;;;;12.19;100.00;99223.91;5074694;28;20052;-72
2023/04/24 02:37:26;;;;;;;19.95;13.82;;;;;;;12.14;100.00;99213.25;5074028;28;20480;-72
2023/04/24 02:39:51;;;;;;;20.20;14.23;;;;;;;12.15;100.00;99211.16;5072848;28;20020;-72
2023/04/24 02:42:17;;;;;;;20.75;13.60;;;;;;;12.17;100.00;99214.25;5073780;28;20032;-72
2023/04/24 02:44:42;;;;;;;19.17;13.07;;;;;;;12.19;100.00;99200.97;5073978;28;20031;-71
2023/04/24 02:47:08;;;;;;;20.10;13.88;;;;;;;12.20;100.00;99205.41;5072913;28;20024;-71
2023/04/24 02:49:34;;;;;;;19.13;14.25;;;;;;;12.25;100.00;99209.53;5073841;28;20069;-72
2023/04/24 02:51:59;;;;;;;24.83;13.73;;;;;;;12.28;100.00;99203.50;5072641;28;20021;-75
2023/04/24 02:54:24;;;;;;;21.83;14.10;;;;;;;12.32;100.00;99199.56;5073630;28;20519;-72
2023/04/24 02:56:50;;;;;;;21.20;14.23;;;;;;;12.38;100.00;99206.84;5073412;28;20020;-73
2023/04/24 02:59:15;;;;;;;19.20;13.73;;;;;;;12.40;100.00;99197.75;5073874;28;20050;-74
2023/04/24 03:01:40;;;;;;;22.27;14.05;;;;;;;12.39;100.00;99202.69;5073741;28;20028;-73
2023/04/24 03:04:06;;;;;;;23.08;14.57;;;;;;;12.35;100.00;99195.66;5072260;28;20028;-72
2023/04/24 03:06:32;;;;;;;17.92;13.88;;;;;;;12.27;100.00;99192.59;5072596;28;20113;-72
2023/04/24 03:08:58;;;;;;;25.50;15.90;;;;;;;12.16;100.00;99189.78;5073667;28;20012;-72
2023/04/24 03:11:23;;;;;;;20.63;14.23;;;;;;;12.08;100.00;99194.53;5073679;28;20377;-72
2023/04/24 03:13:49;;;;;;;21.65;15.38;;;;;;;11.99;100.00;99192.78;5072287;28;20029;-72
2023/04/24 03:16:14;;;;;;;23.08;16.02;;;;;;;11.98;100.00;99207.63;5072259;28;20469;-74
2023/04/24 03:18:40;;;;;;;22.85;14.75;;;;;;;11.92;100.00;99204.78;5073614;28;20029;-74
2023/04/24 03:21:05;;;;;;;22.17;14.90;;;;;;;11.88;100.00;99204.28;5073409;28;20068;-73
2023/04/24 03:23:30;;;;;;;22.27;15.82;;;;;;;11.80;100.00;99206.94;5072107;28;20030;-72
2023/04/24 03:25:56;;;;;;;21.83;15.43;;;;;;;11.82;100.00;99217.84;5073327;28;20028;-72
2023/04/24 03:28:21;;;;;;;24.98;17.00;;;;;;;11.80;100.00;99212.69;5072032;28;20032;-72
2023/04/24 03:30:47;;;;;;;22.40;16.05;;;;;;;11.82;100.00;99224.34;5055152;28;20465;-73
2023/04/24 03:33:12;;;;;;;24.17;16.73;;;;;;;11.83;100.00;99225.91;5072176;28;20035;-72
2023/04/24 03:35:37;;;;;;;23.45;16.10;;;;;;;11.87;100.00;99237.09;5072854;28;20021;-72
2023/04/24 03:38:06;;;;;;;24.05;16.80;;;;;;;11.87;100.00;99224.84;5072941;28;20017;-73
2023/04/24 03:40:33;;;;;;;27.73;16.48;;;;;;;11.87;100.00;99234.22;5072925;28;20028;-72
2023/04/24 03:42:58;;;;;;;31.40;18.35;;;;;;;11.86;100.00;99232.69;5072907;28;20062;-73
2023/04/24 03:45:24;;;;;;;25.35;17.42;;;;;;;11.81;100.00;99228.53;5073238;28;20024;-73
2023/04/24 03:47:49;;;;;;;23.80;16.77;;;;;;;11.77;100.00;99224.38;5073248;28;20016;-70
2023/04/24 03:50:15;;;;;;;23.23;15.98;;;;;;;11.74;100.00;99228.31;5071739;28;20134;-74
2023/04/24 03:52:40;;;;;;;27.27;16.27;;;;;;;11.66;100.00;99233.81;5054983;28;20034;-73
2023/04/24 03:55:06;;;;;;;23.95;15.95;;;;;;;11.62;100.00;99227.56;5072716;28;20123;-71
2023/04/24 03:57:32;;;;;;;26.73;17.35;;;;;;;11.53;100.00;99236.44;5072731;28;20028;-73
2023/04/24 03:59:57;;;;;;;22.10;16.02;;;;;;;11.47;100.00;99237.78;5073037;28;20063;-73
2023/04/24 04:02:22;;;;;;;23.90;16.42;;;;;;;11.41;100.00;99226.38;5072702;28;20089;-72
2023/04/24 04:04:48;;;;;;;26.45;17.00;;;;;;;11.33;100.00;99240.41;5072592;28;20025;-71
2023/04/24 04:07:13;;;;;;;25.58;15.25;;;;;;;11.28;100.00;99235.50;5054403;28;20025;-72
2023/04/24 04:09:38;;;;;;;21.05;15.40;;;;;;;11.24;100.00;99242.78;5072920;28;20020;-72
2023/04/24 04:12:04;;;;;;;26.00;15.55;;;;;;;11.24;100.00;99242.78;5054756;28;20449;-73
2023/04/24 04:14:29;;;;;;;21.98;16.05;;;;;;;11.27;100.00;99245.38;5071737;28;20103;-72
2023/04/24 04:16:55;;;;;;;23.33;15.75;;;;;;;11.32;100.00;99249.53;5072760;28;20462;-72
2023/04/24 04:19:20;;;;;;;23.88;16.17;;;;;;;11.36;100.00;99238.59;5071367;28;20025;-73
2023/04/24 04:21:50;;;;;;;24.25;15.35;;;;;;;11.49;100.00;99240.88;5072666;28;20036;-72
2023/04/24 04:24:16;;;;;;;20.95;15.13;;;;;;;11.65;100.00;99237.19;5072220;28;20055;-72
2023/04/24 04:26:46;;;;;;;23.52;15.73;;;;;;;11.78;100.00;99237.38;5071073;28;20028;-73
2023/04/24 04:29:13;;;;;;;23.38;14.68;;;;;;;11.81;100.00;99230.63;5072848;28;20021;-73
2023/04/24 04:31:40;;;;;;;18.98;14.60;;;;;;;11.92;100.00;99230.56;5054402;28;20496;-73
2023/04/24 04:34:05;;;;;;;21.17;15.48;;;;;;;11.98;100.00;99222.72;5072704;28;20503;-72
2023/04/24 04:36:36;;;;;;;20.98;13.32;;;;;;;12.07;100.00;99221.63;5063893;28;20131;-73
2023/04/24 04:39:04;;;;;;;;;;;;;;;12.09;100.00;99222.66;5072382;28;20090;-72
2023/04/24 04:41:30;;;;;;;23.17;15.00;;;;;;;12.27;100.00;99229.81;5072670;28;19920;-74
2023/04/24 04:43:58;;;;;;;21.08;14.80;;;;;;;12.43;100.00;99225.31;5072652;28;20381;-74
2023/04/24 04:46:26;;;;;;;22.05;15.48;;;;;;;12.49;100.00;99221.09;5072649;28;20035;-82
2023/04/24 04:48:54;;;;;;;19.55;14.13;;;;;;;12.59;100.00;99215.81;5076387;28;20016;-77
2023/04/24 04:51:20;;;;;;;22.90;14.50;;;;;;;12.76;100.00;99221.38;5075578;28;20489;-77
2023/04/24 04:53:46;;;;;;;21.10;14.10;;;;;;;12.96;100.00;99220.94;5076023;28;20079;-76
2023/04/24 04:56:11;;;;;;;18.05;13.65;;;;;;;13.16;100.00;99208.22;5074900;28;20059;-76
2023/04/24 04:58:37;;;;;;;17.17;13.07;;;;;;;13.52;100.00;99216.19;5074954;28;20549;-77
2023/04/24 05:01:03;;;;;;;19.77;13.45;;;;;;;13.73;100.00;99218.56;5075436;28;20044;-73
2023/04/24 05:03:30;;;;;;;18.13;13.23;;;;;;;13.89;100.00;99214.66;5075063;28;20039;-77
2023/04/24 05:05:55;;;;;;;18.75;12.90;;;;;;;14.15;100.00;99216.94;5074576;28;20032;-78
2023/04/24 05:08:21;;;;;;;18.35;12.38;;;;;;;14.23;100.00;99209.25;5076241;28;20028;-79
2023/04/24 05:10:47;;;;;;;20.88;11.57;;;;;;;14.38;100.00;99212.38;5076182;28;20115;-79
2023/04/24 05:13:13;;;;;;;14.15;10.45;;;;;;;14.41;100.00;99212.09;5076176;28;20477;-79
2023/04/24 05:15:39;;;;;;;16.85;11.65;;;;;;;14.40;100.00;99209.75;5076675;28;20374;-79
2023/04/24 05:18:05;;;;;;;16.63;11.18;;;;;;;14.55;100.00;99204.28;5075688;28;20021;-77
2023/04/24 05:20:30;;;;;;;18.90;11.05;;;;;;;14.68;100.00;99207.22;5075136;28;20028;-79
2023/04/24 05:22:55;;;;;;;16.70;10.40;;;;;;;14.87;100.00;99207.19;5075711;28;20024;-80
2023/04/24 05:25:21;;;;;;;13.15;9.45;;;;;;;15.07;100.00;99206.53;5076205;28;20012;-78
2023/04/24 05:27:46;;;;;;;12.63;9.07;;;;;;;15.24;100.00;99207.00;5076134;28;20085;-79
2023/04/24 05:30:12;;;;;;;11.77;8.88;;;;;;;15.44;100.00;99204.78;5075744;28;20427;-79
2023/04/24 05:32:38;;;;;;;12.30;8.43;;;;;;;15.60;100.00;99210.25;5074438;28;20024;-79
2023/04/24 05:35:03;;;;;;;12.23;8.13;;;;;;;15.79;100.00;99207.25;5075118;28;20031;-79
2023/04/24 05:37:29;;;;;;;10.68;8.07;;;;;;;15.94;100.00;99203.78;5073458;28;20053;-81
2023/04/24 05:39:54;;;;;;;13.98;7.97;;;;;;;16.00;100.00;99210.19;5073446;28;20020;-78
2023/04/24 05:42:20;;;;;;;10.98;6.90;;;;;;;16.09;100.00;99213.38;5073009;28;20020;-79
2023/04/24 05:44:45;;;;;;;8.35;6.97;;;;;;;16.11;100.00;99219.34;5073200;28;20473;-78
2023/04/24 05:47:11;;;;;;;8.55;6.00;;;;;;;16.23;100.00;99222.75;5073162;28;20101;-79
2023/04/24 05:49:36;;;;;;;11.50;6.28;;;;;;;16.31;100.00;99217.84;5074151;28;20020;-78
2023/04/24 05:52:03;;;;;;;11.60;6.63;;;;;;;16.39;100.00;99223.72;5075210;28;20031;-80
2023/04/24 05:54:29;;;;;;;7.85;6.00;;;;;;;16.39;100.00;99218.72;5073754;28;20084;-80
2023/04/24 05:56:55;;;;;;;10.55;6.43;;;;;;;16.40;100.00;99223.13;5071898;28;20394;-78
2023/04/24 05:59:21;;;;;;;11.40;6.30;;;;;;;16.45;100.00;99230.13;5072486;28;20029;-78
2023/04/24 06:01:46;;;;;;;9.05;6.35;;;;;;;16.46;100.00;99231.66;5074053;28;20447;-81
2023/04/24 06:04:13;;;;;;;11.23;6.28;;;;;;;16.50;100.00;99220.56;5074809;28;20443;-80
2023/04/24 06:06:38;;;;;;;9.00;5.90;;;;;;;16.66;100.00;99233.03;5076587;28;20036;-78
2023/04/24 06:09:04;;;;;;;8.50;5.60;;;;;;;16.81;100.00;99210.88;5076030;28;20023;-79
2023/04/24 06:11:30;;;;;;;11.75;6.47;;;;;;;17.17;100.00;99239.09;5076323;28;20066;-80
2023/04/24 06:13:55;;;;;;;8.88;5.40;;;;;;;17.26;100.00;99235.69;5075407;28;20477;-79
2023/04/24 06:16:20;;;;;;;9.75;6.13;;;;;;;17.28;100.00;99238.81;5075153;28;20025;-80
2023/04/24 06:18:47;;;;;;;9.00;5.82;;;;;;;17.30;99.17;99242.66;5074592;28;20482;-79
2023/04/24 06:21:12;;;;;;;9.68;6.15;;;;;;;17.17;98.62;99239.88;5074524;28;20032;-80
2023/04/24 06:23:38;;;;;;;10.13;6.13;;;;;;;17.00;99.93;99245.28;5074494;28;20457;-80
2023/04/24 06:26:03;;;;;;;7.10;5.72;;;;;;;16.78;99.48;99234.34;5074637;28;20059;-79
2023/04/24 06:28:28;;;;;;;8.90;6.00;;;;;;;16.64;100.00;99239.41;5074577;28;20476;-79
2023/04/24 06:30:54;;;;;;;9.32;5.72;;;;;;;16.52;100.00;99235.19;5074312;28;20036;-79
2023/04/24 06:33:19;;;;;;;10.40;5.88;;;;;;;16.26;100.00;99235.28;5074362;28;20033;-80
2023/04/24 06:35:45;;;;;;;6.47;5.53;;;;;;;16.03;100.00;99227.13;5073993;28;20036;-80
2023/04/24 06:38:10;;;;;;;7.07;5.22;;;;;;;16.03;100.00;99224.25;5074475;28;20029;-79
2023/04/24 06:40:35;;;;;;;9.75;5.88;;;;;;;16.07;100.00;99221.81;5072938;28;20037;-80
2023/04/24 06:43:02;;;;;;;8.25;5.72;;;;;;;16.07;100.00;99229.66;5074235;28;20028;-81
2023/04/24 06:45:28;;;;;;;12.13;6.40;;;;;;;16.17;100.00;99221.34;5074052;28;20477;-78
2023/04/24 06:47:54;;;;;;;12.45;6.55;;;;;;;16.43;100.00;99229.91;5073786;28;20020;-80
2023/04/24 06:50:19;;;;;;;9.93;5.57;;;;;;;16.84;100.00;99235.75;5072266;28;20028;-79
2023/04/24 06:52:45;;;;;;;8.98;5.57;;;;;;;16.90;99.38;99238.47;5072639;28;20032;-80
2023/04/24 06:55:11;;;;;;;11.98;5.80;;;;;;;17.09;99.92;99232.50;5073613;28;20413;-80
2023/04/24 06:57:36;;;;;;;7.28;5.82;;;;;;;17.09;98.88;99235.38;5073777;28;20354;-79
2023/04/24 07:00:03;;;;;;;8.82;5.82;;;;;;;17.07;99.43;99229.41;5073981;28;20580;-80
2023/04/24 07:02:28;;;;;;;7.53;6.00;;;;;;;17.08;100.00;99230.94;5073665;28;20024;-79
2023/04/24 07:04:54;;;;;;;11.77;6.25;;;;;;;17.06;100.00;99237.28;5073552;28;20031;-81
2023/04/24 07:07:19;;;;;;;12.48;6.10;;;;;;;17.20;100.00;99230.06;5073502;28;20032;-81
2023/04/24 07:09:45;;;;;;;10.95;6.35;;;;;;;17.24;100.00;99232.63;5073481;28;20070;-78
2023/04/24 07:12:11;;;;;;;11.30;6.70;;;;;;;17.37;100.00;99229.63;5072413;28;20472;-80
2023/04/24 07:14:37;;;;;;;8.82;7.07;;;;;;;17.46;98.50;99237.03;5072036;28;20056;-80
2023/04/24 07:17:04;;;;;;;7.53;5.50;;;;;;;17.41;96.89;99241.59;5073276;28;20064;-81
2023/04/24 07:19:29;;;;;;;9.48;5.93;;;;;;;17.56;97.49;99224.41;5071602;28;20470;-79
2023/04/24 07:21:54;;;;;;;6.88;5.32;;;;;;;17.58;94.98;99241.94;5073505;28;20044;-81
2023/04/24 07:24:20;;;;;;;8.10;5.70;;;;;;;17.76;94.09;99238.00;5069996;28;20089;-79
2023/04/24 07:26:46;;;;;;;7.05;4.45;;;;;;;17.94;100.00;99233.28;5072932;28;20040;-80
2023/04/24 07:29:12;;;;;;;8.60;5.00;;;;;;;18.60;100.00;99227.56;5073048;28;20571;-81
2023/04/24 07:31:37;;;;;;;6.85;5.10;;;;;;;19.06;88.71;99242.09;5072933;28;20028;-80
2023/04/24 07:34:03;;;;;;;8.80;5.35;;;;;;;18.95;81.31;99257.72;5071599;28;20063;-83
2023/04/24 07:36:28;;;;;;;7.20;5.50;;;;;;;18.96;84.08;99246.91;5072939;28;20366;-82
2023/04/24 07:38:54;;;;;;;7.32;4.80;;;;;;;19.00;84.13;99245.19;5073068;28;20024;-81
2023/04/24 07:41:20;;;;;;;5.35;4.82;;;;;;;19.18;81.98;99233.81;5072735;28;20442;-79
2023/04/24 07:43:46;;;;;;;9.20;4.90;;;;;;;19.70;78.36;99255.41;5073713;28;20028;-79
2023/04/24 07:46:11;;;;;;;7.53;4.78;;;;;;;20.45;76.83;99244.94;5072670;28;20143;-79
2023/04/24 07:48:36;;;;;;;5.82;5.03;;;;;;;21.48;67.76;99254.91;5071975;28;20028;-80
2023/04/24 07:51:02;;;;;;;9.23;5.22;;;;;;;22.13;66.93;99242.97;5071436;28;20074;-80
2023/04/24 07:53:27;;;;;;;7.13;4.97;;;;;;;22.53;63.40;99249.25;5072532;28;20040;-80
2023/04/24 07:55:55;;;;;;;8.57;5.07;;;;;;;22.87;62.00;99253.47;5071562;28;20033;-80
2023/04/24 07:58:21;;;;;;;6.70;5.18;;;;;;;22.38;61.44;99251.59;5072806;28;20037;-80
2023/04/24 08:00:46;;;;;;;8.80;4.63;;;;;;;21.70;63.05;99247.31;5072916;28;20024;-80
2023/04/24 08:03:12;;;;;;;8.48;5.60;;;;;;;20.66;69.17;99242.47;5075236;28;20039;-79
2023/04/24 08:05:38;;;;;;;7.40;5.60;;;;;;;19.92;75.24;99237.94;5075049;28;20521;-79
2023/04/24 08:08:03;;;;;;;8.15;5.05;;;;;;;19.59;78.70;99247.13;5073319;28;20024;-79
2023/04/24 08:10:29;;;;;;;9.32;6.72;;;;;;;19.44;80.12;99251.59;5054937;28;20055;-79
2023/04/24 08:12:55;;;;;;;8.32;6.45;;;;;;;19.07;82.09;99241.50;5071850;28;20103;-78
2023/04/24 08:15:20;;;;;;;6.55;5.93;;;;;;;18.78;81.45;99236.47;5073482;28;20044;-80
2023/04/24 08:17:46;;;;;;;7.95;5.88;;;;;;;18.58;82.82;99235.25;5072420;28;20079;-78
2023/04/24 08:20:13;;;;;;;9.82;6.32;;;;;;;18.41;84.44;99240.81;5072848;28;20025;-80
2023/04/24 08:22:42;;;;;;;7.85;5.63;;;;;;;18.31;86.45;99248.50;5075077;28;20074;-79
2023/04/24 08:25:08;;;;;;;11.43;5.82;;;;;;;18.14;89.28;99240.28;5080703;28;20029;-80
2023/04/24 08:27:33;;;;;;;6.88;5.65;;;;;;;18.04;90.62;99248.75;5076157;28;20028;-79
2023/04/24 08:29:59;;;;;;;8.55;6.05;;;;;;;18.05;91.72;99244.50;5076675;28;20051;-81
2023/04/24 08:32:28;;;;;;;9.68;5.95;;;;;;;18.11;96.31;99239.34;5079913;28;20024;-80
2023/04/24 08:34:56;;;;;;;13.25;6.97;;;;;;;18.24;98.75;99238.41;5079762;28;20024;-79
2023/04/24 08:37:21;;;;;;;9.05;6.88;;;;;;;18.41;100.00;99235.81;5091774;28;20038;-77
2023/04/24 08:39:47;;;;;;;9.07;7.07;;;;;;;18.58;100.00;99221.56;5096870;28;20048;-78
2023/04/24 08:42:12;;;;;;;9.70;7.10;;;;;;;19.01;100.00;99228.59;5087907;28;20079;-77
2023/04/24 08:44:38;;;;;;;9.38;7.30;;;;;;;19.57;100.00;99229.53;5080755;28;20426;-79
2023/04/24 08:47:05;;;;;;;10.15;6.85;;;;;;;20.46;100.00;99231.94;5077222;28;20028;-78
2023/04/24 08:49:31;;;;;;;14.77;7.38;;;;;;;21.34;100.00;99235.41;5076261;28;20023;-79
2023/04/24 08:51:56;;;;;;;9.48;6.65;;;;;;;22.05;99.61;99234.31;5076603;28;20104;-78
2023/04/24 08:54:22;;;;;;;9.25;6.13;;;;;;;22.40;91.94;99240.13;5075804;28;20132;-78
2023/04/24 08:56:48;;;;;;;8.25;6.72;;;;;;;22.55;90.03;99242.84;5075014;28;20070;-78
2023/04/24 08:59:15;;;;;;;15.52;7.05;;;;;;;22.64;90.07;99247.97;5075781;28;20506;-77
2023/04/24 09:01:40;;;;;;;17.27;7.28;;;;;;;22.65;87.26;99240.75;5076135;28;20032;-78
2023/04/24 09:04:09;;;;;;;10.13;7.13;;;;;;;22.76;84.26;99245.28;5076228;28;20050;-79
2023/04/24 09:06:35;;;;;;;7.13;5.80;;;;;;;22.73;80.85;99244.31;5075759;28;20464;-79
2023/04/24 09:09:01;;;;;;;10.25;5.90;;;;;;;23.21;81.93;99250.41;5075872;28;20457;-79
2023/04/24 09:11:27;;;;;;;7.07;5.55;;;;;;;23.81;78.82;99256.59;5082269;28;20024;-77
2023/04/24 09:13:56;;;;;;;9.25;6.50;;;;;;;24.24;73.89;99251.91;5086590;28;20028;-79
2023/04/24 09:16:23;;;;;;;8.57;5.75;;;;;;;24.88;71.44;99249.38;5077608;28;20031;-80
2023/04/24 09:18:49;;;;;;;7.82;6.10;;;;;;;25.67;62.54;99263.84;5077203;28;20070;-81
2023/04/24 09:21:15;;;;;;;7.47;5.82;;;;;;;26.15;60.95;99275.22;5080622;28;20021;-78
2023/04/24 09:23:41;;;;;;;9.35;6.50;;;;;;;26.30;59.18;99269.72;5078251;28;20380;-80
2023/04/24 09:26:06;;;;;;;14.60;6.80;;;;;;;26.48;56.68;99266.47;5086114;28;20031;-81
2023/04/24 09:28:35;;;;;;;7.07;6.32;;;;;;;26.31;52.33;99274.19;5074798;28;20461;-81
2023/04/24 09:31:15;;;;;;;11.90;6.82;;;;;;;26.27;53.15;99268.03;5090981;28;20021;-81
2023/04/24 09:33:53;;;;;;;9.52;6.47;;;;;;;26.14;51.77;99268.59;5075153;28;20032;-83
2023/04/24 09:36:19;;;;;;;7.28;6.57;;;;;;;25.75;51.73;99258.53;5092550;28;20031;-82
2023/04/24 09:38:45;;;;;;;7.88;6.35;;;;;;;25.08;53.18;99261.78;5085998;28;20028;-80
2023/04/24 09:41:13;;;;;;;6.97;5.90;;;;;;;24.81;54.25;99264.88;5081163;28;20046;-81
2023/04/24 09:43:39;;;;;;;8.85;6.60;;;;;;;24.61;56.25;99261.22;5081722;28;20076;-81
2023/04/24 09:46:09;;;;;;;11.40;7.20;;;;;;;24.36;58.77;99258.66;5080726;28;20066;-82
2023/04/24 09:48:37;;;;;;;8.77;7.05;;;;;;;24.01;61.74;99242.78;5081148;28;20024;-83
2023/04/24 09:51:06;;;;;;;8.05;6.85;;;;;;;23.50;64.44;99233.03;5080937;28;20025;-83
2023/04/24 09:53:32;;;;;;;8.30;7.32;;;;;;;23.22;69.68;99222.81;5083451;28;20488;-80
2023/04/24 09:56:12;;;;;;;8.10;6.63;;;;;;;23.12;73.68;99229.97;5082322;28;20028;-82
2023/04/24 09:58:38;;;;;;;7.70;6.28;;;;;;;23.30;71.90;99234.34;5078874;28;20028;-81
2023/04/24 10:01:06;;;;;;;10.02;6.20;;;;;;;23.42;71.45;99229.47;5082065;28;20103;-79
2023/04/24 10:03:33;;;;;;;10.30;6.95;;;;;;;23.20;74.31;99222.66;5075111;28;20024;-81
2023/04/24 10:05:59;;;;;;;8.85;6.93;;;;;;;23.42;77.14;99225.78;5079867;28;20055;-81
2023/04/24 10:08:25;;;;;;;6.65;6.05;;;;;;;23.44;76.96;99229.63;5084892;28;20028;-81
2023/04/24 10:10:50;;;;;;;7.90;6.80;;;;;;;23.43;76.48;99224.41;5084782;28;20322;-80
2023/04/24 10:13:15;;;;;;;10.57;7.60;;;;;;;23.47;75.68;99225.47;5086181;28;20064;-80
2023/04/24 10:15:43;;;;;;;7.43;6.63;;;;;;;23.72;74.36;99225.25;5075944;28;20031;-83
2023/04/24 10:18:11;;;;;;;7.95;6.55;;;;;;;23.83;68.85;99227.56;5074544;28;20438;-79
2023/04/24 10:20:38;;;;;;;10.98;6.60;;;;;;;23.55;66.08;99226.16;5074088;28;20036;-78
2023/04/24 10:23:04;;;;;;;7.35;6.07;;;;;;;23.17;67.63;99220.94;5074361;28;20036;-80
2023/04/24 10:25:31;;;;;;;7.78;6.22;;;;;;;22.97;70.70;99225.16;5074376;28;20024;-80
2023/04/24 10:27:59;;;;;;;11.02;7.18;;;;;;;22.99;75.62;99210.75;5072916;28;20060;-79
2023/04/24 10:30:35;;;;;;;9.48;6.47;;;;;;;22.93;77.83;99208.13;5072839;28;20020;-78
2023/04/24 10:33:02;;;;;;;7.95;6.38;;;;;;;22.66;74.58;99215.31;5074135;28;20100;-77
2023/04/24 10:35:30;;;;;;;6.25;5.45;;;;;;;22.40;72.15;99220.53;5073416;28;20028;-79
2023/04/24 10:38:08;;;;;;;7.65;6.85;;;;;;;22.20;73.88;99230.50;5073029;28;20024;-79
2023/04/24 10:40:35;;;;;;;7.55;5.65;;;;;;;22.45;72.11;99233.28;5074339;28;20025;-78
2023/04/24 10:43:09;;;;;;;8.93;6.57;;;;;;;22.36;74.78;99237.66;5073959;28;20050;-79
2023/04/24 10:45:35;;;;;;;9.77;6.10;;;;;;;22.06;77.55;99230.06;5073579;28;20021;-79
2023/04/24 10:48:13;;;;;;;7.97;5.97;;;;;;;21.96;78.57;99225.53;5072428;28;20020;-80
2023/04/24 10:50:51;;;;;;;12.85;6.20;;;;;;;21.84;75.73;99233.22;5073840;28;20089;-83
2023/04/24 10:53:23;;;;;;;8.02;5.97;;;;;;;22.23;73.28;99235.09;5074057;28;20020;-80
2023/04/24 10:55:48;;;;;;;;;;;;;;;22.24;68.68;99227.13;5073096;28;20138;-82
2023/04/24 10:58:16;;;;;;;7.60;6.20;;;;;;;22.27;65.14;99247.09;5073659;28;20281;-82
2023/04/24 11:00:46;;;;;;;8.85;6.70;;;;;;;21.99;64.61;99242.53;5073607;28;20410;-82
2023/04/24 11:03:33;;;;;;;6.63;5.90;;;;;;;22.26;68.02;99236.06;5073385;28;20376;-81
2023/04/24 11:06:06;;;;;;;6.15;5.55;;;;;;;22.37;66.03;99236.28;5073823;28;20108;-79
2023/04/24 11:08:32;;;;;;;8.63;6.90;;;;;;;22.52;65.04;99230.25;5073678;28;20023;-82
2023/04/24 11:11:01;;;;;;;7.75;5.85;;;;;;;22.77;59.03;99233.00;5074851;28;20048;-82
2023/04/24 11:13:56;;;;;;;7.55;5.75;;;;;;;22.77;58.59;99233.00;5073348;28;20032;-79
2023/04/24 11:16:30;;;;;;;11.07;6.50;;;;;;;22.61;57.28;99236.75;5073066;28;20048;-80